Weather observations for the past three days for
Manhattan, Manhattan Municipal Airport
Imperial (Metric)
Date Time (cdt) Wind (mph) Vis. (mi.) Weather Sky Cond. Temperature (ºF) Relative Humidity Wind Chill (°F) Heat Index (°F) Pressure Precipitation (in)
Air Dwpt 6 hour altimeter (in) sea level (mb) 1 hr 3 hr 6 hr
Max. Min.
03 00:52 S 10 10.00 Fair CLR 84.9 63 95 80.1 48% 86 29.87 1010.0
02 23:52 S 12 10.00 Fair CLR 86 64 48% 87 29.87 1010.0
02 22:52 Vrbl 3 10.00 Fair CLR 81 64.9 58% 83 29.87 1010.3
02 21:52 S 5 10.00 Fair CLR 82 64.9 56% 84 29.87 1010.1
02 20:52 S 3 10.00 Fair CLR 84 64 51% 85 29.85 1009.6
02 19:52 S 3 10.00 Fair CLR 87.1 64.9 48% 89 29.84 1009.3
02 18:52 S 7 10.00 Fair CLR 95 64 102 95 36% 97 29.84 1009.1
02 17:52 S 12 10.00 Fair CLR 99 63 31% 101 29.84 1009.1
02 16:52 S 12 G 23 10.00 Fair CLR 100.9 62.1 28% 103 29.85 1009.5
02 15:52 S 14 10.00 Fair CLR 100.9 61 27% 102 29.87 1010.1
02 14:52 SW 10 G 25 10.00 Fair CLR 102 62.1 27% 104 29.89 1010.7
02 13:52 S 14 G 24 10.00 Fair CLR 100 64 31% 103 29.91 1011.3
02 12:52 S 16 G 29 10.00 Fair CLR 98.1 64.9 99 71.1 34% 101 29.92 1012.0
02 11:52 SW 17 G 26 10.00 Fair CLR 97 66.9 37% 101 29.94 1012.7
02 10:15 SW 12 10.00 Mostly Cloudy BKN012 89.6 82.4 79% 111 29.95 0.0
02 09:52 SW 13 10.00 Fair CLR 87.1 66 50% 89 29.95 1013.0
02 08:52 SW 12 10.00 Fair CLR 82.9 64.9 55% 85 29.95 1013.2
02 07:52 SW 8 10.00 Fair CLR 77 64 64% 79 29.95 1013.1
02 06:52 Calm 10.00 Fair CLR 72 64 78.1 70 76% 29.94 1012.8
02 05:52 Calm 10.00 Partly Cloudy SCT120 72 64 76% 29.94 1012.4
02 04:52 Calm 10.00 Mostly Cloudy BKN120 71.1 64 79% 29.93 1012.3
02 03:52 Calm 10.00 Fair CLR 73 64 74% 29.93 1012.1
02 02:52 SW 7 10.00 Fair CLR 75.9 63 64% 78 29.92 1011.9
02 01:52 SW 8 10.00 Fair CLR 78.1 62.1 58% 80 29.93 1012.0
02 00:52 SW 5 10.00 Fair CLR 73.9 63 95 73.9 69% 29.92 1012.0
01 23:52 Calm 10.00 Fair CLR 75 62.1 64% 77 29.93 1012.1
01 22:52 Calm 10.00 Fair CLR 75.9 62.1 62% 78 29.92 1012.1
01 21:52 SE 3 10.00 Fair CLR 82.9 61 48% 83 29.91 1011.5
01 19:52 S 8 10.00 Fair CLR 89.1 62.1 41% 89 29.88 1010.6
01 18:52 S 9 10.00 Fair CLR 95 61 102 95 32% 95 29.88 1010.7
01 17:52 S 9 10.00 Fair CLR 99 60.1 28% 99 29.89 1010.7
01 16:52 S 13 10.00 Fair CLR 100 61 28% 101 29.89 1010.7
01 14:52 S 13 G 24 10.00 A Few Clouds FEW100 100 61 28% 101 29.92 1011.9
01 13:52 S 13 10.00 Fair CLR 100 62.1 29% 102 29.94 1012.5
01 12:52 SW 14 10.00 A Few Clouds FEW110 98.1 63 98.1 72 32% 100 29.96 1013.2
01 11:52 SW 14 10.00 Fair CLR 95 64 36% 97 29.97 1013.6
01 10:52 SW 13 10.00 Fair CLR 91 64 41% 93 29.97 1013.7
01 09:52 SW 14 G 22 10.00 Fair CLR 86 63 46% 87 29.98 1013.8
01 08:52 SW 8 10.00 Fair CLR 82.9 62.1 49% 84 29.99 1014.3
01 07:52 SW 9 10.00 Fair CLR 77 61 58% 79 29.98 1014.1
01 06:52 SW 3 10.00 Fair CLR 72 61 80.1 72 68% 29.97 1013.7
01 04:52 SW 7 10.00 Fair CLR 75.9 61 60% 78 29.96 1013.3
01 03:52 SW 5 10.00 Fair CLR 73.9 61 64% 29.95 1012.9
01 02:52 SW 3 10.00 Fair CLR 78.1 61 56% 80 29.95 1012.8
01 01:52 SW 8 10.00 Fair CLR 79 62.1 56% 80 29.95 1012.7
01 00:52 S 6 10.00 Fair CLR 79 62.1 95 75 56% 80 29.95 1012.9
31 23:52 Calm 10.00 Fair CLR 80.1 62.1 54% 81 29.95 1012.9
31 22:52 S 6 10.00 Fair CLR 82 63 53% 83 29.93 1012.4
31 21:52 S 8 10.00 Fair CLR 84.9 63 48% 86 29.92 1011.7
31 20:52 S 6 10.00 Fair CLR 84.9 64.9 51% 87 29.89 1011.0
31 19:52 S 5 10.00 Fair CLR 89.1 66.9 48% 92 29.88 1010.6
31 18:52 S 6 10.00 Fair CLR 95 66.9 102 95 40% 99 29.88 1010.6
31 17:52 S 10 10.00 Fair CLR 100 64.9 32% 103 29.88 1010.5
31 16:52 S 10 10.00 Fair CLR 100.9 64 30% 104 29.89 1010.7
31 15:52 S 9 10.00 Fair CLR 100.9 64.9 31% 105 29.9 1011.1
31 14:52 S 9 G 20 10.00 Fair CLR 100 64.9 32% 103 29.92 1011.8
31 13:52 SW 8 10.00 Fair CLR 99 64 32% 102 29.93 1012.2
31 12:52 S 13 10.00 Fair CLR 97 63 97 77 33% 99 29.94 1012.2
31 11:52 S 12 G 24 10.00 Fair CLR 93.9 64 37% 96 29.94 1012.6
31 10:52 S 9 10.00 Fair CLR 89.1 64.9 45% 91 29.95 1012.8
31 09:52 S 9 10.00 Fair CLR 88 66 48% 90 29.95 1012.9
31 08:52 SW 9 10.00 Fair CLR 82.9 64 53% 84 29.97 1013.6
31 07:52 SW 9 10.00 Fair CLR 80.1 62.1 54% 81 29.95 1012.9
31 06:52 SW 9 10.00 Fair CLR 77 62.1 84 73 60% 79 29.92 1012.0
31 05:52 SW 7 10.00 Mostly Cloudy BKN120 77 63 62% 79 29.92 1011.9
31 04:52 SW 9 10.00 Fair CLR 80.1 62.1 54% 81 29.9 1011.2
31 03:52 SW 10 10.00 Fair CLR 81 62.1 53% 82 29.88 1010.4
31 02:52 SW 7 10.00 Fair CLR 79 62.1 56% 80 29.87 1010.0
31 01:52 SW 9 10.00 Fair CLR 80.1 62.1 54% 81 29.88 1010.4
Date Time (cdt) Wind (mph) Vis. (mi.) Weather Sky Cond. Air Dwpt Max. Min. Relative Humidity Wind Chill (°F) Heat Index (°F) altimeter (in) sea level (mb) 1 hr 3 hr 6 hr
6 hour
Temperature (ºF) Pressure Precipitation (in)